Time;durP1;ratioP1;P1;durP2;ratioP2;P2;SDS_P1;SDS_P2;PMS_P1;PMS_P2;Temp;Humidity;BMP_temperature;BMP_pressure;BME280_temperature;BME280_humidity;BME280_pressure;Samples;Min_cycle;Max_cycle;Signal;HPM_P1;HPM_P2
2022/08/28 00:00:50;;;;;;;1.80;1.33;;;20.50;97.80;;;20.85;95.38;101090.91;5158636;28;20077;-86
2022/08/28 00:03:24;;;;;;;4.07;1.70;;;20.50;97.80;;;20.86;95.77;101098.00;5166235;28;20045;-85
2022/08/28 00:05:56;;;;;;;1.92;1.30;;;20.40;97.90;;;20.86;95.38;101097.06;5158249;28;20078;-86
2022/08/28 00:08:30;;;;;;;2.25;1.50;;;20.50;97.80;;;20.86;95.47;101105.94;5159307;28;20074;-86
2022/08/28 00:11:03;;;;;;;2.92;1.83;;;20.40;97.80;;;20.84;95.48;101099.72;5158611;28;20042;-86
2022/08/28 00:13:36;;;;;;;3.30;1.50;;;20.40;97.80;;;20.83;95.25;101103.28;5159327;28;20046;-86
2022/08/28 00:16:08;;;;;;;3.20;2.10;;;20.40;97.80;;;20.80;95.19;101100.66;5159293;28;20198;-85
2022/08/28 00:18:42;;;;;;;2.45;1.40;;;20.40;97.70;;;20.80;95.37;101097.09;5160405;28;20050;-86
2022/08/28 00:21:15;;;;;;;1.98;1.60;;;20.40;97.80;;;20.78;95.57;101099.75;5176932;28;20062;-85
2022/08/28 00:23:47;;;;;;;2.10;1.40;;;20.40;97.80;;;20.78;95.78;101097.09;5160652;28;20047;-85
2022/08/28 00:29:07;;;;;;;2.90;1.67;;;20.40;97.90;;;20.77;95.67;101108.59;5157381;28;20081;-86
2022/08/28 00:31:39;;;;;;;3.03;1.70;;;20.40;97.90;;;20.76;95.82;101106.81;5156986;28;20061;-86
2022/08/28 00:34:13;;;;;;;2.42;1.58;;;20.40;97.90;;;20.76;96.01;101108.59;5158333;28;20049;-85
2022/08/28 00:36:45;;;;;;;3.90;1.73;;;20.40;98.00;;;20.74;95.92;101105.97;5159508;28;20108;-85
2022/08/28 00:39:17;;;;;;;2.10;1.60;;;20.30;97.90;;;20.74;95.86;101113.91;5162378;28;20085;-86
2022/08/28 00:41:51;;;;;;;2.58;1.42;;;20.30;97.90;;;20.74;96.08;101113.91;5170508;28;20062;-87
2022/08/28 00:44:26;;;;;;;2.78;1.55;;;20.30;98.00;;;20.73;96.06;101114.75;5169411;28;20050;-85
2022/08/28 00:47:00;;;;;;;1.77;1.65;;;20.30;98.00;;;20.73;96.14;101114.75;5164378;28;20049;-86
2022/08/28 00:49:36;;;;;;;;;;;20.40;98.10;;;20.72;96.34;101120.06;5161117;28;20050;-85
2022/08/28 00:52:07;;;;;;;4.25;1.80;;;20.30;98.10;;;20.71;96.63;101123.59;5173057;28;19959;-84
2022/08/28 00:54:43;;;;;;;2.65;1.52;;;20.30;98.10;;;20.69;96.25;101115.69;5154915;28;20046;-85
2022/08/28 00:57:20;;;;;;;3.13;1.67;;;20.30;98.10;;;20.69;96.49;101114.78;5155361;28;20046;-85
2022/08/28 00:59:52;;;;;;;2.65;1.48;;;20.30;98.40;;;20.68;96.59;101108.63;5155849;28;20560;-86
2022/08/28 01:02:25;;;;;;;3.25;1.70;;;20.30;98.20;;;20.68;96.62;101118.34;5155705;28;20516;-87
2022/08/28 01:04:59;;;;;;;3.20;1.83;;;20.30;98.20;;;20.68;96.58;101115.69;5157342;28;20052;-84
2022/08/28 01:07:31;;;;;;;3.03;1.70;;;20.30;98.20;;;20.67;96.76;101122.75;5154935;28;20054;-85
2022/08/28 01:10:08;;;;;;;3.92;1.73;;;20.30;98.20;;;20.68;96.79;101121.84;5155281;28;20070;-85
2022/08/28 01:12:41;;;;;;;2.33;1.48;;;20.30;98.20;;;20.67;96.81;101128.03;5156232;28;20081;-85
2022/08/28 01:15:19;;;;;;;3.13;1.60;;;20.30;98.20;;;20.65;97.01;101121.84;5156308;28;20088;-85
2022/08/28 01:17:55;;;;;;;2.47;1.60;;;20.30;98.30;;;20.64;97.13;101122.75;5173191;28;20042;-85
2022/08/28 01:20:33;;;;;;;2.40;1.50;;;20.20;98.30;;;20.62;97.28;101129.81;5155411;28;20050;-85
2022/08/28 01:23:13;;;;;;;2.38;1.55;;;20.30;98.40;;;20.62;97.19;101127.16;5154952;28;20066;-86
2022/08/28 01:25:47;;;;;;;2.10;1.52;;;20.20;98.40;;;20.62;97.18;101129.81;5155312;28;20047;-86
2022/08/28 01:28:19;;;;;;;2.72;1.55;;;20.20;98.40;;;20.59;97.14;101125.38;5156016;28;20081;-85
2022/08/28 01:30:51;;;;;;;2.95;1.90;;;20.20;98.40;;;20.62;96.93;101121.00;5155178;28;20054;-86
2022/08/28 01:33:24;;;;;;;2.40;1.75;;;20.20;98.30;;;20.59;96.92;101127.16;5155345;28;20050;-86
2022/08/28 01:35:58;;;;;;;3.15;1.77;;;20.20;98.30;;;20.59;97.11;101122.72;5155808;28;20080;-87
2022/08/28 01:38:30;;;;;;;3.42;1.60;;;20.20;98.60;;;20.58;97.04;101128.03;5158333;28;20120;-87
2022/08/28 01:41:04;;;;;;;3.10;1.55;;;20.20;98.40;;;20.57;97.22;101121.88;5162741;28;20077;-84
2022/08/28 01:43:36;;;;;;;3.22;1.70;;;20.20;98.40;;;20.56;97.10;101119.22;5157432;28;20104;-85
2022/08/28 01:46:11;;;;;;;3.00;1.90;;;20.10;98.40;;;20.54;97.44;101111.28;5157099;28;20401;-86
2022/08/28 01:48:44;;;;;;;2.00;1.33;;;20.20;98.50;;;20.53;97.51;101119.22;5157824;28;20054;-84
2022/08/28 01:51:17;;;;;;;3.03;1.55;;;20.10;98.50;;;20.50;97.35;101114.81;5174346;28;20109;-85
2022/08/28 01:53:49;;;;;;;2.45;1.50;;;20.10;98.50;;;20.50;97.40;101121.88;5160012;28;20157;-86
2022/08/28 01:56:22;;;;;;;4.32;1.65;;;20.10;98.50;;;20.49;97.64;101123.66;5156681;28;20420;-86
2022/08/28 01:58:55;;;;;;;3.78;1.67;;;20.10;98.50;;;20.45;97.60;101123.63;5156928;28;20054;-85
2022/08/28 02:01:27;;;;;;;2.33;1.60;;;20.10;98.60;;;20.46;97.71;101123.63;5157006;28;20054;-86
2022/08/28 02:04:00;;;;;;;3.80;1.75;;;20.10;98.60;;;20.44;97.89;101124.50;5158100;28;20073;-87
2022/08/28 02:06:32;;;;;;;2.17;1.55;;;20.10;98.60;;;20.42;97.75;101124.50;5156866;28;20061;-86
2022/08/28 02:09:06;;;;;;;2.40;1.63;;;20.00;98.60;;;20.40;97.83;101128.88;5157481;28;20054;-85
2022/08/28 02:11:41;;;;;;;3.47;1.42;;;20.00;98.60;;;20.41;97.61;101124.47;5158032;28;20084;-84
2022/08/28 02:14:14;;;;;;;2.85;1.40;;;20.00;98.60;;;20.40;97.06;101128.00;5156104;28;20081;-86
2022/08/28 02:16:46;;;;;;;2.05;1.30;;;20.00;98.40;;;20.37;96.79;101134.19;5155469;28;20084;-86
2022/08/28 02:19:19;;;;;;;5.25;1.90;;;20.00;98.30;;;20.33;96.44;101130.66;5156357;28;20114;-85
2022/08/28 02:21:54;;;;;;;3.10;1.63;;;20.00;98.20;;;20.34;95.91;101144.78;5156705;28;20084;-85
2022/08/28 02:24:26;;;;;;;3.90;1.40;;;20.00;98.10;;;20.32;95.71;101142.13;5156734;28;20115;-86
2022/08/28 02:27:01;;;;;;;3.70;1.65;;;20.00;98.00;;;20.31;95.43;101144.78;5157196;28;20424;-85
2022/08/28 02:29:33;;;;;;;3.67;1.30;;;20.00;98.00;;;20.28;95.13;101147.44;5157612;28;20052;-85
2022/08/28 02:32:05;;;;;;;2.95;1.40;;;20.00;97.90;;;20.28;95.13;101145.69;5157455;28;20145;-86
2022/08/28 02:34:39;;;;;;;1.42;1.20;;;19.90;97.80;;;20.27;94.90;101143.88;5173018;28;20046;-86
2022/08/28 02:37:12;;;;;;;2.42;1.48;;;19.90;97.80;;;20.26;94.53;101149.19;5158612;28;20097;-85
2022/08/28 02:39:44;;;;;;;2.63;1.30;;;19.90;97.70;;;20.25;94.44;101147.44;5159078;28;20072;-85
2022/08/28 02:42:18;;;;;;;3.05;1.42;;;19.90;97.60;;;20.18;93.86;101138.59;5158340;28;20069;-85
2022/08/28 02:44:50;;;;;;;1.50;0.90;;;19.90;97.50;;;20.19;93.51;101142.13;5158803;28;20046;-85
2022/08/28 02:47:22;;;;;;;3.65;1.15;;;19.80;97.40;;;20.16;92.94;101143.03;5158129;28;20054;-85
2022/08/28 02:49:54;;;;;;;3.50;1.35;;;19.80;97.10;;;20.14;92.46;101142.13;5156827;28;20245;-85
2022/08/28 02:52:26;;;;;;;2.78;1.20;;;19.80;97.00;;;20.12;92.09;101132.41;5157160;28;20061;-86
2022/08/28 02:54:59;;;;;;;3.35;1.00;;;19.80;96.90;;;20.12;92.03;101138.59;5160041;28;20053;-84
2022/08/28 02:57:33;;;;;;;2.30;1.13;;;19.80;96.90;;;20.10;91.96;101135.06;5161868;28;20056;-85
2022/08/28 03:00:10;;;;;;;2.38;1.02;;;19.80;96.80;;;20.08;91.80;101131.53;5156831;28;20046;-84
2022/08/28 03:02:44;;;;;;;2.15;1.00;;;19.70;96.80;;;20.08;91.79;101136.81;5156233;28;20148;-85
2022/08/28 03:05:20;;;;;;;3.15;1.20;;;19.70;96.80;;;20.06;92.03;101138.59;5155841;28;20046;-86
2022/08/28 03:07:53;;;;;;;4.18;1.30;;;19.70;96.80;;;20.05;91.57;101137.69;5156983;28;20046;-85
2022/08/28 03:10:25;;;;;;;2.78;1.10;;;19.70;96.70;;;20.04;91.70;101137.72;5156293;28;20085;-85
2022/08/28 03:12:59;;;;;;;1.67;0.93;;;19.70;96.70;;;20.03;91.62;101133.31;5156124;28;20512;-86
2022/08/28 03:15:31;;;;;;;1.75;1.00;;;19.70;96.70;;;20.03;91.76;101133.31;5156351;28;20046;-86
2022/08/28 03:18:03;;;;;;;2.90;1.00;;;19.70;96.70;;;20.03;91.63;101141.25;5156110;28;20042;-84
2022/08/28 03:20:35;;;;;;;3.03;1.20;;;19.70;96.70;;;20.02;91.70;101136.84;5156519;28;20049;-85
2022/08/28 03:23:26;;;;;;;1.17;0.90;;;19.70;96.70;;;20.01;91.69;101141.22;5156951;28;20077;-85
2022/08/28 03:26:01;;;;;;;3.92;1.25;;;19.70;96.70;;;19.98;91.56;101137.69;5157631;28;20046;-86
2022/08/28 03:28:38;;;;;;;2.55;1.20;;;19.70;96.70;;;19.93;91.58;101144.75;5156932;28;20050;-85
2022/08/28 03:31:13;;;;;;;1.92;0.95;;;19.60;96.70;;;19.91;91.87;101143.84;5156736;28;20416;-86
2022/08/28 03:33:46;;;;;;;2.08;1.10;;;19.60;96.70;;;19.88;91.81;101146.47;5156273;28;20046;-85
2022/08/28 03:36:23;;;;;;;2.00;1.00;;;19.60;96.70;;;19.87;91.85;101150.00;5156241;28;20460;-86
2022/08/28 03:38:59;;;;;;;1.92;0.88;;;19.50;96.70;;;19.85;91.75;101144.72;5156009;28;20153;-86
2022/08/28 03:41:32;;;;;;;5.63;1.30;;;19.60;96.70;;;19.85;91.54;101154.44;5157346;28;20436;-85
2022/08/28 03:44:06;;;;;;;4.85;1.00;;;19.50;96.60;;;19.80;91.79;101151.75;5158969;28;20081;-85
2022/08/28 03:46:39;;;;;;;2.30;1.10;;;19.50;96.70;;;19.79;91.84;101156.16;5164856;28;20034;-85
2022/08/28 03:49:12;;;;;;;1.98;1.08;;;19.50;96.70;;;19.81;91.80;101155.28;5172766;28;20038;-85
2022/08/28 03:51:44;;;;;;;2.38;0.93;;;19.50;96.80;;;19.84;91.94;101157.97;5172135;28;20081;-86
2022/08/28 03:54:16;;;;;;;1.95;0.88;;;19.50;96.80;;;19.82;91.84;101162.34;5156724;28;20141;-85
2022/08/28 03:56:48;;;;;;;2.28;0.93;;;19.50;96.70;;;19.78;91.99;101165.00;5156126;28;20050;-86
2022/08/28 03:59:22;;;;;;;2.75;1.00;;;19.50;96.80;;;19.77;92.10;101162.34;5156273;28;20050;-86
2022/08/28 04:01:54;;;;;;;2.55;1.10;;;19.40;96.80;;;19.77;92.12;101163.22;5156257;28;20148;-86
2022/08/28 04:04:27;;;;;;;4.63;1.17;;;19.40;96.80;;;19.78;92.17;101170.28;5155930;28;20406;-86
2022/08/28 04:06:59;;;;;;;3.15;0.90;;;19.50;96.90;;;19.75;92.20;101169.38;5155562;28;20042;-85
2022/08/28 04:09:31;;;;;;;1.98;1.05;;;19.40;96.80;;;19.72;92.26;101164.97;5155562;28;20050;-85
2022/08/28 04:12:04;;;;;;;1.10;0.88;;;19.40;96.90;;;19.71;92.41;101171.13;5155420;28;20544;-85
2022/08/28 04:14:39;;;;;;;6.45;1.38;;;19.40;96.90;;;19.67;92.20;101169.34;5155727;28;20050;-85
2022/08/28 04:17:12;;;;;;;2.05;0.90;;;19.40;96.90;;;19.65;92.44;101168.47;5172982;28;20046;-86
2022/08/28 04:19:44;;;;;;;3.35;1.10;;;19.40;96.90;;;19.66;92.52;101175.53;5171993;28;20421;-86
2022/08/28 04:22:16;;;;;;;2.70;1.00;;;19.30;96.90;;;19.65;92.37;101173.75;5173405;28;20420;-85
2022/08/28 04:24:48;;;;;;;2.75;1.20;;;19.30;96.90;;;19.63;92.33;101179.94;5155901;28;20112;-85
2022/08/28 04:27:20;;;;;;;2.35;1.30;;;19.30;96.90;;;19.58;92.66;101177.25;5158578;28;20428;-86
2022/08/28 04:29:54;;;;;;;2.63;1.00;;;19.30;96.90;;;19.56;92.72;101178.09;5157111;28;20046;-86
2022/08/28 04:32:26;;;;;;;2.17;1.02;;;19.30;96.90;;;19.53;92.75;101182.50;5156117;28;20050;-86
2022/08/28 04:34:58;;;;;;;3.60;1.05;;;19.30;97.00;;;19.53;92.87;101184.25;5156872;28;20050;-86
2022/08/28 04:37:31;;;;;;;2.63;1.20;;;19.30;97.00;;;19.52;92.70;101187.78;5160143;28;20058;-86
2022/08/28 04:40:04;;;;;;;1.73;1.10;;;19.20;97.00;;;19.53;92.71;101181.59;5157223;28;20141;-85
2022/08/28 04:42:37;;;;;;;2.30;1.08;;;19.20;97.00;;;19.55;92.86;101193.06;5172852;28;20050;-86
2022/08/28 04:45:12;;;;;;;3.40;1.20;;;19.20;97.00;;;19.51;92.46;101188.66;5174418;28;20049;-85
2022/08/28 04:47:44;;;;;;;3.45;1.02;;;19.20;96.90;;;19.51;92.58;101196.59;5156750;28;20122;-85
2022/08/28 04:50:16;;;;;;;4.10;1.40;;;19.20;97.00;;;19.50;92.17;101200.13;5156894;28;20257;-85
2022/08/28 04:52:50;;;;;;;4.88;1.50;;;19.20;96.90;;;19.46;92.09;101198.31;5174848;28;20046;-86
2022/08/28 04:55:22;;;;;;;4.07;1.25;;;19.20;96.80;;;19.45;92.20;101188.63;5174314;28;20050;-85
2022/08/28 04:57:55;;;;;;;4.97;1.48;;;19.20;96.80;;;19.43;92.03;101200.94;5156812;28;20066;-85
2022/08/28 05:00:28;;;;;;;5.53;1.25;;;19.20;96.80;;;19.43;92.03;101198.28;5163519;28;20034;-88
2022/08/28 05:03:00;;;;;;;2.83;1.48;;;19.20;96.80;;;19.43;91.81;101201.84;5180922;28;20044;-85
2022/08/28 05:05:33;;;;;;;3.75;1.50;;;19.20;96.70;;;19.43;91.89;101208.88;5166816;28;20049;-88
2022/08/28 05:08:05;;;;;;;5.13;1.30;;;19.20;96.70;;;19.45;92.10;101204.50;5160290;28;20046;-85
2022/08/28 05:10:38;;;;;;;4.53;1.65;;;19.20;96.80;;;19.43;91.89;101206.22;5170992;28;20131;-85
2022/08/28 05:13:14;;;;;;;3.70;1.30;;;19.10;96.70;;;19.42;91.83;101212.41;5154537;28;20066;-85
2022/08/28 05:15:51;;;;;;;3.20;1.25;;;19.10;96.70;;;19.38;91.65;101221.19;5155225;28;20046;-83
2022/08/28 05:18:24;;;;;;;5.75;1.83;;;19.10;96.70;;;19.39;91.97;101218.56;5157027;28;20145;-85
2022/08/28 05:20:56;;;;;;;3.67;2.05;;;19.10;96.70;;;19.36;91.75;101223.81;5155620;28;20085;-84
2022/08/28 05:23:29;;;;;;;5.55;1.83;;;19.10;96.70;;;19.36;91.51;101217.66;5154787;28;20121;-85
2022/08/28 05:26:01;;;;;;;6.55;1.70;;;19.00;96.60;;;19.28;91.88;101220.25;5172213;28;20497;-85
2022/08/28 05:28:34;;;;;;;4.57;1.27;;;19.00;96.70;;;19.29;92.23;101226.41;5155197;28;20070;-84
2022/08/28 05:31:12;;;;;;;5.07;1.63;;;19.00;96.80;;;19.28;92.36;101224.66;5156624;28;20054;-84
2022/08/28 05:33:46;;;;;;;3.83;1.65;;;19.00;96.90;;;19.27;92.45;101233.47;5155156;28;20564;-85
2022/08/28 05:36:20;;;;;;;4.93;1.67;;;19.00;96.90;;;19.31;92.49;101229.97;5154054;28;20567;-85
2022/08/28 05:38:56;;;;;;;6.55;1.70;;;19.00;96.90;;;19.36;92.33;101233.50;5154376;28;20069;-85
2022/08/28 05:41:30;;;;;;;10.02;1.90;;;19.00;96.90;;;19.35;91.94;101243.19;5155714;28;20301;-85
2022/08/28 05:44:10;;;;;;;4.57;1.92;;;19.00;96.80;;;19.38;91.93;101242.34;5155628;28;20152;-86
2022/08/28 05:46:47;;;;;;;5.15;1.63;;;19.10;96.80;;;19.41;91.92;101240.59;5156395;28;20043;-85
2022/08/28 05:49:20;;;;;;;3.50;1.60;;;19.10;96.80;;;19.45;91.75;101247.69;5157945;28;20062;-86
2022/08/28 05:51:52;;;;;;;5.53;1.90;;;19.10;97.10;;;19.45;91.50;101254.72;5159614;28;20101;-86
2022/08/28 05:54:25;;;;;;;8.43;2.10;;;19.10;96.70;;;19.44;91.29;101251.19;5157085;28;20142;-84
2022/08/28 05:56:57;;;;;;;3.83;1.63;;;19.10;96.60;;;19.47;91.25;101252.97;5160639;28;20046;-85
2022/08/28 05:59:30;;;;;;;5.22;2.13;;;19.20;96.60;;;19.46;90.77;101251.19;5158212;28;20576;-85
2022/08/28 06:02:06;;;;;;;8.10;2.03;;;19.20;96.50;;;19.42;90.79;101252.94;5155753;28;20121;-84
2022/08/28 06:04:39;;;;;;;6.47;1.90;;;19.10;96.40;;;19.41;90.94;101252.94;5155642;28;20050;-83
2022/08/28 06:07:12;;;;;;;7.20;1.80;;;19.10;96.40;;;19.47;90.87;101252.97;5169723;28;20042;-82
2022/08/28 06:09:44;;;;;;;7.22;2.10;;;19.20;96.40;;;19.52;90.46;101264.47;5166242;28;20039;-82
2022/08/28 06:12:17;;;;;;;5.55;1.60;;;19.20;96.30;;;19.58;90.54;101255.72;5151385;28;20065;-82
2022/08/28 06:14:49;;;;;;;4.93;1.65;;;19.30;96.30;;;19.64;90.34;101261.03;5151543;28;20058;-82
2022/08/28 06:17:22;;;;;;;3.65;1.80;;;19.30;96.30;;;19.71;90.24;101268.13;5151682;28;20448;-81
2022/08/28 06:19:54;;;;;;;7.18;2.15;;;19.30;96.20;;;19.69;89.68;101270.75;5168555;28;20046;-81
2022/08/28 06:22:26;;;;;;;7.22;2.13;;;19.30;96.10;;;19.66;89.86;101270.72;5151405;28;20060;-82
2022/08/28 06:24:59;;;;;;;4.72;2.05;;;19.30;96.10;;;19.65;89.78;101262.78;5151928;28;20057;-82
2022/08/28 06:27:32;;;;;;;5.05;1.90;;;19.30;96.10;;;19.69;89.90;101276.06;5151660;28;20141;-81
2022/08/28 06:30:07;;;;;;;5.32;2.33;;;19.40;96.10;;;19.71;89.73;101279.59;5170177;28;20066;-81
2022/08/28 06:32:41;;;;;;;5.22;2.28;;;19.40;96.10;;;19.71;89.60;101274.28;5169862;28;20058;-82
2022/08/28 06:35:13;;;;;;;8.60;2.20;;;19.40;95.70;;;19.67;89.33;101280.44;5150226;28;20051;-81
2022/08/28 06:37:45;;;;;;;5.47;2.08;;;19.40;95.90;;;19.70;89.54;101280.47;5148441;28;20140;-80
2022/08/28 06:40:17;;;;;;;8.20;2.28;;;19.40;95.90;;;19.69;89.34;101284.00;5148997;28;20050;-81
2022/08/28 06:42:49;;;;;;;6.72;2.22;;;19.40;95.90;;;19.75;89.27;101281.34;5149943;28;20421;-81
2022/08/28 06:45:21;;;;;;;5.10;2.05;;;19.40;95.90;;;19.80;89.50;101289.31;5150494;28;20046;-82
2022/08/28 06:47:55;;;;;;;5.10;2.00;;;19.40;95.90;;;19.88;89.22;101291.97;5151505;28;20050;-80
2022/08/28 06:50:27;;;;;;;7.10;2.40;;;19.50;95.90;;;19.91;88.54;101292.03;5153277;28;20074;-82
2022/08/28 06:53:00;;;;;;;8.93;2.30;;;19.50;95.60;;;19.94;88.57;101297.31;5179108;28;20101;-81
2022/08/28 06:55:32;;;;;;;6.75;2.78;;;19.50;95.60;;;19.92;88.09;101293.78;5159490;28;20427;-82
2022/08/28 06:58:05;;;;;;;5.90;1.90;;;19.50;95.50;;;19.96;88.03;101290.28;5168283;28;20042;-82
2022/08/28 07:00:39;;;;;;;6.88;2.22;;;19.60;95.50;;;20.02;87.93;101295.59;5168338;28;20046;-82
2022/08/28 07:03:12;;;;;;;8.57;2.13;;;19.70;95.40;;;20.03;87.78;101294.72;5168461;28;20500;-81
2022/08/28 07:05:44;;;;;;;6.75;2.15;;;19.70;95.30;;;20.08;87.81;101292.06;5150966;28;20156;-82
2022/08/28 07:08:17;;;;;;;6.05;2.10;;;19.70;95.40;;;20.16;87.67;101283.28;5167915;28;20050;-82
2022/08/28 07:10:49;;;;;;;8.60;2.53;;;19.70;95.30;;;20.44;87.78;101294.84;5150811;28;20061;-81
2022/08/28 07:13:21;;;;;;;6.63;2.35;;;19.90;95.50;;;20.85;86.95;101286.09;5150419;28;20049;-81
2022/08/28 07:15:53;;;;;;;7.32;2.30;;;20.20;95.40;;;21.32;84.91;101287.84;5150546;28;20155;-81
2022/08/28 07:18:27;;;;;;;8.65;1.90;;;20.60;94.80;;;21.90;82.04;101296.53;5150693;28;20046;-81
2022/08/28 07:21:00;;;;;;;6.85;2.05;;;21.10;94.00;;;22.24;79.43;101300.88;5159671;28;20086;-83
2022/08/28 07:23:37;;;;;;;8.82;2.28;;;21.40;92.90;;;22.46;78.15;101295.41;5155718;28;20114;-80
2022/08/28 07:26:13;;;;;;;6.38;2.40;;;21.70;92.10;;;22.68;77.28;101297.94;5150410;28;20046;-81
2022/08/28 07:28:45;;;;;;;5.40;2.00;;;21.90;91.70;;;22.82;76.78;101297.81;5167282;28;20050;-82
2022/08/28 07:31:22;;;;;;;7.63;2.25;;;22.10;91.20;;;22.97;76.33;101300.41;5166572;28;20058;-77
2022/08/28 07:33:56;;;;;;;4.70;1.95;;;22.20;90.80;;;23.25;76.35;101293.94;5164193;28;20046;-77
2022/08/28 07:36:28;;;;;;;;;;;22.50;90.90;;;23.62;75.34;101303.38;5146974;28;20047;-77
2022/08/28 07:39:00;;;;;;;6.22;2.33;;;22.80;90.50;;;23.94;73.68;101303.00;5146734;28;19928;-77
2022/08/28 07:41:37;;;;;;;6.22;2.35;;;23.10;89.30;;;24.30;72.73;101304.28;5149014;28;20054;-77
2022/08/28 07:47:04;;;;;;;;;;;23.70;86.50;;;24.85;70.80;101311.50;5155866;28;20047;-80
2022/08/28 07:49:38;;;;;;;;;;;24.00;85.20;;;25.01;69.99;101315.69;5150557;28;20380;-77
2022/08/28 07:52:12;;;;;;;5.65;2.10;;;24.20;84.00;;;25.20;69.08;101313.59;5167863;28;19922;-77
2022/08/28 07:54:44;;;;;;;8.90;2.00;;;24.30;82.80;;;25.34;68.20;101318.69;5150644;28;20050;-77
2022/08/28 07:57:19;;;;;;;4.78;2.22;;;24.50;81.50;;;25.47;67.68;101320.25;5149404;28;20127;-77
2022/08/28 07:59:52;;;;;;;6.97;2.15;;;24.60;80.60;;;25.56;66.89;101317.41;5150025;28;20097;-76
2022/08/28 08:02:24;;;;;;;6.38;2.20;;;24.70;79.50;;;25.73;66.93;101326.91;5149816;28;20132;-77
2022/08/28 08:04:57;;;;;;;5.50;2.08;;;24.80;79.10;;;25.90;66.03;101327.47;5167321;28;20050;-78
2022/08/28 08:07:29;;;;;;;5.70;2.25;;;24.90;78.00;;;26.03;65.63;101328.97;5166906;28;20049;-78
2022/08/28 08:10:01;;;;;;;7.38;2.40;;;25.00;77.10;;;26.28;65.44;101323.09;5149944;28;20062;-76
2022/08/28 08:12:34;;;;;;;7.60;2.00;;;25.10;76.90;;;26.61;64.74;101325.06;5150075;28;20156;-78
2022/08/28 08:15:08;;;;;;;6.63;2.28;;;25.30;76.10;;;26.99;63.59;101329.47;5150266;28;20318;-78
2022/08/28 08:17:40;;;;;;;6.60;2.45;;;25.60;75.10;;;27.40;62.64;101332.94;5149694;28;20141;-83
2022/08/28 08:20:14;;;;;;;5.75;2.22;;;25.80;74.00;;;27.70;61.58;101331.22;5150129;28;20410;-79
2022/08/28 08:22:46;;;;;;;7.43;2.15;;;26.00;72.60;;;28.03;60.65;101341.91;5149776;28;20050;-77
2022/08/28 08:25:18;;;;;;;7.38;2.10;;;26.20;71.90;;;28.41;59.65;101358.72;5167193;28;20053;-79
2022/08/28 08:27:51;;;;;;;5.75;1.75;;;26.30;70.90;;;28.79;58.12;101347.66;5167250;28;20078;-78
2022/08/28 08:30:23;;;;;;;6.93;2.30;;;26.50;69.70;;;29.38;57.32;101344.81;5149646;28;20054;-81
2022/08/28 08:32:55;;;;;;;5.45;2.00;;;26.70;68.90;;;30.11;55.80;101343.16;5149717;28;20056;-78
2022/08/28 08:35:29;;;;;;;5.40;2.20;;;27.10;68.00;;;30.95;54.13;101356.00;5150010;28;20484;-79
2022/08/28 08:38:01;;;;;;;4.47;1.73;;;27.70;66.40;;;31.61;52.75;101336.09;5149692;28;20042;-78
2022/08/28 08:40:34;;;;;;;5.22;1.80;;;28.30;64.70;;;32.34;51.43;101356.22;5149571;28;20058;-79
2022/08/28 08:43:06;;;;;;;5.00;1.58;;;28.90;62.90;;;32.95;50.66;101355.06;5166892;28;20128;-78
2022/08/28 08:45:41;;;;;;;4.13;1.63;;;29.50;61.40;;;33.43;49.33;101356.25;5149377;28;20085;-81
2022/08/28 08:48:26;;;;;;;9.70;2.50;;;30.00;59.80;;;33.77;48.90;101359.88;5166565;28;20082;-78
2022/08/28 08:51:06;;;;;;;6.25;1.80;;;30.40;58.60;;;34.13;47.81;101360.63;5149155;28;20054;-80
2022/08/28 08:53:45;;;;;;;;;;;30.80;57.20;;;34.32;47.25;101367.75;5166581;28;20068;-81
2022/08/28 08:56:20;;;;;;;5.22;1.80;;;31.00;56.40;;;34.62;47.07;101368.72;5166307;28;19928;-79
2022/08/28 08:58:55;;;;;;;3.92;1.48;;;31.30;56.00;;;34.78;46.94;101369.63;5166795;28;20376;-80
2022/08/28 09:01:34;;;;;;;5.20;1.90;;;31.50;55.40;;;34.86;46.27;101365.59;5165391;28;20141;-80
2022/08/28 09:04:26;;;;;;;8.05;1.83;;;31.60;54.50;;;34.52;46.57;101370.22;5148947;28;20050;-80
2022/08/28 09:07:04;;;;;;;4.65;1.50;;;31.60;54.40;;;34.11;46.91;101367.97;5148740;28;20580;-78
2022/08/28 09:09:41;;;;;;;4.88;1.90;;;31.50;54.20;;;33.72;47.59;101361.03;5148867;28;20046;-78
2022/08/28 09:12:18;;;;;;;6.85;1.90;;;31.30;54.50;;;33.43;47.79;101369.75;5148932;28;20054;-79
2022/08/28 09:15:03;;;;;;;5.65;1.75;;;31.10;54.50;;;33.06;47.72;101366.22;5166022;28;20049;-78
2022/08/28 09:17:41;;;;;;;4.15;1.55;;;31.00;54.50;;;32.42;48.78;101372.03;5165913;28;20548;-77
2022/08/28 09:20:18;;;;;;;5.28;1.92;;;30.70;54.80;;;31.66;49.75;101367.38;5166170;28;20386;-77
2022/08/28 09:22:52;;;;;;;5.32;1.83;;;30.30;55.20;;;30.97;51.05;101368.47;5148539;28;20054;-77
2022/08/28 09:25:52;;;;;;;3.38;1.38;;;29.80;55.80;;;30.35;52.08;101373.63;5166334;28;20049;-77
2022/08/28 09:28:28;;;;;;;6.05;1.70;;;29.30;56.70;;;29.95;52.81;101378.63;5165673;28;20050;-77
2022/08/28 09:31:06;;;;;;;6.70;1.98;;;28.90;57.20;;;29.64;53.75;101370.81;5148453;28;20097;-78
2022/08/28 09:33:43;;;;;;;5.45;1.50;;;28.70;57.80;;;29.45;53.73;101375.91;5148906;28;20046;-77
2022/08/28 09:36:28;;;;;;;3.55;1.48;;;28.50;57.90;;;29.11;54.37;101377.97;5148438;28;20530;-78
2022/08/28 09:39:24;;;;;;;3.60;1.30;;;28.20;58.30;;;28.84;54.40;101377.03;5148324;28;20062;-77
2022/08/28 09:44:57;;;;;;;5.00;1.40;;;27.80;58.80;;;28.59;54.49;101384.97;5165815;28;20050;-78
2022/08/28 09:47:47;;;;;;;4.53;1.38;;;27.60;58.80;;;28.45;54.83;101366.63;5148000;28;20141;-80
2022/08/28 09:50:30;;;;;;;3.47;1.23;;;27.40;59.10;;;28.27;55.25;101364.44;5148511;28;20145;-78
2022/08/28 09:53:19;;;;;;;6.75;1.92;;;27.30;59.50;;;28.15;55.86;101364.81;5166814;28;20069;-78
2022/08/28 09:56:08;;;;;;;5.18;1.40;;;27.20;60.60;;;27.94;55.98;101361.81;5150431;28;20050;-77
2022/08/28 09:58:44;;;;;;;4.72;1.33;;;27.10;59.80;;;27.90;55.96;101359.28;5172668;28;20074;-77
2022/08/28 10:01:36;;;;;;;6.25;1.80;;;27.00;60.10;;;27.97;55.39;101360.84;5165197;28;20042;-76
2022/08/28 10:04:27;;;;;;;3.88;1.50;;;27.00;59.70;;;27.95;55.29;101358.22;5161005;28;20034;-84
2022/08/28 10:07:06;;;;;;;5.53;1.40;;;27.00;59.60;;;27.89;54.92;101357.50;5167799;28;20132;-79
2022/08/28 10:09:46;;;;;;;3.15;1.40;;;27.00;59.30;;;27.71;55.29;101354.44;5165269;28;20050;-77
2022/08/28 10:12:35;;;;;;;4.07;1.35;;;26.80;59.50;;;27.87;55.46;101351.34;5147551;28;20050;-80
2022/08/28 10:15:15;;;;;;;3.67;1.23;;;26.90;59.70;;;28.16;54.80;101356.72;5147784;28;20050;-79
2022/08/28 10:18:10;;;;;;;4.82;1.65;;;27.10;59.60;;;28.23;54.54;101362.78;5165107;28;20070;-77
2022/08/28 10:20:53;;;;;;;3.97;1.30;;;27.20;59.30;;;28.20;54.79;101366.44;5164937;28;20125;-79
2022/08/28 10:23:36;;;;;;;4.15;1.52;;;27.20;59.20;;;28.22;54.91;101367.25;5164836;28;20057;-78
2022/08/28 10:26:28;;;;;;;2.90;1.15;;;27.20;59.40;;;28.24;54.87;101360.06;5164842;28;20076;-82
2022/08/28 10:29:23;;;;;;;3.10;1.30;;;27.20;59.30;;;28.20;54.95;101355.72;5147015;28;20042;-77
2022/08/28 10:32:15;;;;;;;6.00;1.77;;;27.20;59.30;;;28.24;55.40;101361.88;5164597;28;20125;-78
2022/08/28 10:35:04;;;;;;;3.95;1.40;;;27.30;59.50;;;28.42;54.88;101355.09;5147725;28;20149;-78
2022/08/28 10:37:47;;;;;;;4.40;1.55;;;27.40;59.40;;;28.25;54.42;101355.59;5164423;28;20471;-78
2022/08/28 10:40:27;;;;;;;4.88;1.55;;;27.40;58.50;;;28.09;54.62;101358.69;5147329;28;20105;-77
2022/08/28 10:43:06;;;;;;;3.83;1.40;;;27.20;58.80;;;28.12;54.65;101355.06;5147329;28;20050;-78
2022/08/28 10:45:41;;;;;;;4.75;1.45;;;27.20;58.90;;;27.99;54.44;101351.88;5164444;28;20049;-79
2022/08/28 10:48:20;;;;;;;4.43;1.23;;;27.10;58.80;;;27.84;54.79;101354.97;5147321;28;20493;-78
2022/08/28 10:50:57;;;;;;;3.92;1.20;;;27.00;58.90;;;27.81;54.61;101350.56;5146955;28;20054;-78
2022/08/28 10:53:36;;;;;;;4.85;1.45;;;26.90;58.90;;;27.85;55.48;101357.63;5164603;28;20467;-79